sensor_id;sensor_type;location;lat;lon;timestamp;P1;durP1;ratioP1;P2;durP2;ratioP2
29384;SDS011;16367;48.736;9.218;2022-10-16T00:00:50;4.55;;;1.80;;
29384;SDS011;16367;48.736;9.218;2022-10-16T00:02:52;4.15;;;1.30;;
29384;SDS011;16367;48.736;9.218;2022-10-16T00:04:55;2.70;;;1.05;;
29384;SDS011;16367;48.736;9.218;2022-10-16T00:06:58;4.20;;;1.63;;
29384;SDS011;16367;48.736;9.218;2022-10-16T00:09:00;4.10;;;1.27;;
29384;SDS011;16367;48.736;9.218;2022-10-16T00:11:04;4.45;;;1.30;;
29384;SDS011;16367;48.736;9.218;2022-10-16T00:13:11;4.43;;;1.30;;
29384;SDS011;16367;48.736;9.218;2022-10-16T00:15:13;4.75;;;1.35;;
29384;SDS011;16367;48.736;9.218;2022-10-16T00:17:16;6.43;;;1.40;;
29384;SDS011;16367;48.736;9.218;2022-10-16T00:19:19;4.45;;;1.40;;
29384;SDS011;16367;48.736;9.218;2022-10-16T00:21:22;4.13;;;1.27;;
29384;SDS011;16367;48.736;9.218;2022-10-16T00:23:26;5.25;;;1.33;;
29384;SDS011;16367;48.736;9.218;2022-10-16T00:25:29;4.43;;;1.52;;
29384;SDS011;16367;48.736;9.218;2022-10-16T00:27:33;5.07;;;1.48;;
29384;SDS011;16367;48.736;9.218;2022-10-16T00:29:37;4.80;;;1.50;;
29384;SDS011;16367;48.736;9.218;2022-10-16T00:31:40;3.58;;;1.42;;
29384;SDS011;16367;48.736;9.218;2022-10-16T00:33:43;6.07;;;1.60;;
29384;SDS011;16367;48.736;9.218;2022-10-16T00:35:46;5.20;;;1.75;;
29384;SDS011;16367;48.736;9.218;2022-10-16T00:37:48;5.00;;;1.80;;
29384;SDS011;16367;48.736;9.218;2022-10-16T00:39:51;5.05;;;1.95;;
29384;SDS011;16367;48.736;9.218;2022-10-16T00:41:54;4.13;;;1.73;;
29384;SDS011;16367;48.736;9.218;2022-10-16T00:43:58;6.20;;;1.63;;
29384;SDS011;16367;48.736;9.218;2022-10-16T00:46:03;4.93;;;1.60;;
29384;SDS011;16367;48.736;9.218;2022-10-16T00:48:11;5.80;;;2.08;;
29384;SDS011;16367;48.736;9.218;2022-10-16T00:50:16;5.78;;;2.08;;
29384;SDS011;16367;48.736;9.218;2022-10-16T00:52:24;6.43;;;2.13;;
29384;SDS011;16367;48.736;9.218;2022-10-16T00:54:28;5.32;;;2.03;;
29384;SDS011;16367;48.736;9.218;2022-10-16T00:56:33;6.15;;;2.25;;
29384;SDS011;16367;48.736;9.218;2022-10-16T00:58:35;5.32;;;2.22;;
29384;SDS011;16367;48.736;9.218;2022-10-16T01:00:38;4.25;;;1.85;;
29384;SDS011;16367;48.736;9.218;2022-10-16T01:02:42;4.82;;;1.77;;
29384;SDS011;16367;48.736;9.218;2022-10-16T01:04:46;6.15;;;2.00;;
29384;SDS011;16367;48.736;9.218;2022-10-16T01:06:51;4.53;;;1.92;;
29384;SDS011;16367;48.736;9.218;2022-10-16T01:11:26;6.28;;;2.08;;
29384;SDS011;16367;48.736;9.218;2022-10-16T01:13:35;4.75;;;1.90;;
29384;SDS011;16367;48.736;9.218;2022-10-16T01:15:45;6.38;;;2.17;;
29384;SDS011;16367;48.736;9.218;2022-10-16T01:17:56;6.50;;;2.03;;
29384;SDS011;16367;48.736;9.218;2022-10-16T01:20:06;5.13;;;2.17;;
29384;SDS011;16367;48.736;9.218;2022-10-16T01:22:13;6.63;;;1.98;;
29384;SDS011;16367;48.736;9.218;2022-10-16T01:24:17;4.68;;;2.03;;
29384;SDS011;16367;48.736;9.218;2022-10-16T01:26:36;6.38;;;2.03;;
29384;SDS011;16367;48.736;9.218;2022-10-16T01:28:49;4.78;;;2.10;;
29384;SDS011;16367;48.736;9.218;2022-10-16T01:30:56;6.30;;;1.95;;
29384;SDS011;16367;48.736;9.218;2022-10-16T01:33:02;6.13;;;2.20;;
29384;SDS011;16367;48.736;9.218;2022-10-16T01:35:14;7.00;;;1.98;;
29384;SDS011;16367;48.736;9.218;2022-10-16T01:37:28;4.65;;;1.98;;
29384;SDS011;16367;48.736;9.218;2022-10-16T01:39:35;5.40;;;2.22;;
29384;SDS011;16367;48.736;9.218;2022-10-16T01:41:43;7.05;;;2.83;;
29384;SDS011;16367;48.736;9.218;2022-10-16T01:43:50;6.38;;;2.58;;
29384;SDS011;16367;48.736;9.218;2022-10-16T01:45:59;8.05;;;2.40;;
29384;SDS011;16367;48.736;9.218;2022-10-16T01:48:03;6.88;;;2.38;;
29384;SDS011;16367;48.736;9.218;2022-10-16T01:50:10;5.00;;;2.25;;
29384;SDS011;16367;48.736;9.218;2022-10-16T01:52:17;6.00;;;2.22;;
29384;SDS011;16367;48.736;9.218;2022-10-16T01:54:25;5.93;;;2.00;;
29384;SDS011;16367;48.736;9.218;2022-10-16T01:56:30;6.22;;;2.22;;
29384;SDS011;16367;48.736;9.218;2022-10-16T01:58:36;5.38;;;2.15;;
29384;SDS011;16367;48.736;9.218;2022-10-16T02:00:44;6.38;;;2.47;;
29384;SDS011;16367;48.736;9.218;2022-10-16T02:02:49;6.35;;;2.10;;
29384;SDS011;16367;48.736;9.218;2022-10-16T02:04:57;5.20;;;2.13;;
29384;SDS011;16367;48.736;9.218;2022-10-16T02:07:03;5.32;;;1.92;;
29384;SDS011;16367;48.736;9.218;2022-10-16T02:09:07;5.82;;;2.10;;
29384;SDS011;16367;48.736;9.218;2022-10-16T02:11:11;5.50;;;2.45;;
29384;SDS011;16367;48.736;9.218;2022-10-16T02:13:14;4.72;;;1.92;;
29384;SDS011;16367;48.736;9.218;2022-10-16T02:15:22;4.50;;;2.10;;
29384;SDS011;16367;48.736;9.218;2022-10-16T02:17:26;4.43;;;1.85;;
29384;SDS011;16367;48.736;9.218;2022-10-16T02:19:29;5.32;;;1.98;;
29384;SDS011;16367;48.736;9.218;2022-10-16T02:21:33;4.93;;;2.30;;
29384;SDS011;16367;48.736;9.218;2022-10-16T02:23:44;8.35;;;1.95;;
29384;SDS011;16367;48.736;9.218;2022-10-16T02:25:53;5.80;;;2.20;;
29384;SDS011;16367;48.736;9.218;2022-10-16T02:28:00;5.18;;;2.30;;
29384;SDS011;16367;48.736;9.218;2022-10-16T02:30:07;6.65;;;2.17;;
29384;SDS011;16367;48.736;9.218;2022-10-16T02:32:15;9.48;;;2.15;;
29384;SDS011;16367;48.736;9.218;2022-10-16T02:34:22;8.55;;;2.10;;
29384;SDS011;16367;48.736;9.218;2022-10-16T02:36:27;8.07;;;2.20;;
29384;SDS011;16367;48.736;9.218;2022-10-16T02:38:31;5.18;;;1.83;;
29384;SDS011;16367;48.736;9.218;2022-10-16T02:40:35;4.93;;;2.00;;
29384;SDS011;16367;48.736;9.218;2022-10-16T02:42:39;4.45;;;1.92;;
29384;SDS011;16367;48.736;9.218;2022-10-16T02:44:42;6.65;;;2.00;;
29384;SDS011;16367;48.736;9.218;2022-10-16T02:46:45;3.95;;;1.60;;
29384;SDS011;16367;48.736;9.218;2022-10-16T02:48:47;3.78;;;1.65;;
29384;SDS011;16367;48.736;9.218;2022-10-16T02:50:51;5.97;;;1.80;;
29384;SDS011;16367;48.736;9.218;2022-10-16T02:52:54;6.93;;;1.98;;
29384;SDS011;16367;48.736;9.218;2022-10-16T02:54:57;5.38;;;1.55;;
29384;SDS011;16367;48.736;9.218;2022-10-16T02:56:59;4.35;;;1.50;;
29384;SDS011;16367;48.736;9.218;2022-10-16T02:59:02;6.07;;;1.77;;
29384;SDS011;16367;48.736;9.218;2022-10-16T03:01:04;4.88;;;1.67;;
29384;SDS011;16367;48.736;9.218;2022-10-16T03:03:07;4.75;;;1.70;;
29384;SDS011;16367;48.736;9.218;2022-10-16T03:05:10;3.78;;;1.58;;
29384;SDS011;16367;48.736;9.218;2022-10-16T03:07:14;4.80;;;1.92;;
29384;SDS011;16367;48.736;9.218;2022-10-16T03:09:17;4.68;;;1.65;;
29384;SDS011;16367;48.736;9.218;2022-10-16T03:11:20;5.72;;;1.85;;
29384;SDS011;16367;48.736;9.218;2022-10-16T03:13:22;4.25;;;1.80;;
29384;SDS011;16367;48.736;9.218;2022-10-16T03:15:25;4.60;;;2.05;;
29384;SDS011;16367;48.736;9.218;2022-10-16T03:17:29;6.10;;;1.75;;
29384;SDS011;16367;48.736;9.218;2022-10-16T03:19:32;5.85;;;3.00;;
29384;SDS011;16367;48.736;9.218;2022-10-16T03:21:34;6.13;;;2.75;;
29384;SDS011;16367;48.736;9.218;2022-10-16T03:23:38;5.93;;;2.15;;
29384;SDS011;16367;48.736;9.218;2022-10-16T03:25:41;5.43;;;2.10;;
29384;SDS011;16367;48.736;9.218;2022-10-16T03:27:44;7.13;;;2.20;;
29384;SDS011;16367;48.736;9.218;2022-10-16T03:29:47;6.32;;;1.73;;
29384;SDS011;16367;48.736;9.218;2022-10-16T03:31:49;7.57;;;3.15;;
29384;SDS011;16367;48.736;9.218;2022-10-16T03:33:52;8.98;;;3.40;;
29384;SDS011;16367;48.736;9.218;2022-10-16T03:35:55;4.13;;;1.60;;
29384;SDS011;16367;48.736;9.218;2022-10-16T03:37:57;5.53;;;2.55;;
29384;SDS011;16367;48.736;9.218;2022-10-16T03:40:02;4.72;;;2.10;;
29384;SDS011;16367;48.736;9.218;2022-10-16T03:42:04;4.88;;;1.58;;
29384;SDS011;16367;48.736;9.218;2022-10-16T03:44:07;4.43;;;1.55;;
29384;SDS011;16367;48.736;9.218;2022-10-16T03:46:10;5.22;;;1.70;;
29384;SDS011;16367;48.736;9.218;2022-10-16T03:48:13;5.47;;;1.70;;
29384;SDS011;16367;48.736;9.218;2022-10-16T03:50:15;7.72;;;2.10;;
29384;SDS011;16367;48.736;9.218;2022-10-16T03:52:18;4.90;;;1.58;;
29384;SDS011;16367;48.736;9.218;2022-10-16T03:54:21;5.93;;;1.73;;
29384;SDS011;16367;48.736;9.218;2022-10-16T03:56:25;5.40;;;1.90;;
29384;SDS011;16367;48.736;9.218;2022-10-16T03:58:28;4.60;;;1.88;;
29384;SDS011;16367;48.736;9.218;2022-10-16T04:00:31;5.35;;;1.90;;
29384;SDS011;16367;48.736;9.218;2022-10-16T04:02:33;7.88;;;2.20;;
29384;SDS011;16367;48.736;9.218;2022-10-16T04:04:36;5.97;;;1.90;;
29384;SDS011;16367;48.736;9.218;2022-10-16T04:06:38;5.82;;;1.80;;
29384;SDS011;16367;48.736;9.218;2022-10-16T04:08:42;4.35;;;1.73;;
29384;SDS011;16367;48.736;9.218;2022-10-16T04:10:45;3.85;;;1.40;;
29384;SDS011;16367;48.736;9.218;2022-10-16T04:12:49;6.60;;;1.60;;
29384;SDS011;16367;48.736;9.218;2022-10-16T04:14:51;4.50;;;1.90;;
29384;SDS011;16367;48.736;9.218;2022-10-16T04:16:54;4.93;;;1.40;;
29384;SDS011;16367;48.736;9.218;2022-10-16T04:18:57;4.30;;;1.90;;
29384;SDS011;16367;48.736;9.218;2022-10-16T04:21:01;6.30;;;1.77;;
29384;SDS011;16367;48.736;9.218;2022-10-16T04:23:05;4.15;;;1.63;;
29384;SDS011;16367;48.736;9.218;2022-10-16T04:25:07;8.93;;;1.52;;
29384;SDS011;16367;48.736;9.218;2022-10-16T04:27:12;7.05;;;1.70;;
29384;SDS011;16367;48.736;9.218;2022-10-16T04:29:16;4.80;;;1.40;;
29384;SDS011;16367;48.736;9.218;2022-10-16T04:31:18;3.80;;;1.38;;
29384;SDS011;16367;48.736;9.218;2022-10-16T04:33:21;3.80;;;1.38;;
29384;SDS011;16367;48.736;9.218;2022-10-16T04:35:24;6.28;;;1.70;;
29384;SDS011;16367;48.736;9.218;2022-10-16T04:37:27;4.50;;;1.63;;
29384;SDS011;16367;48.736;9.218;2022-10-16T04:39:29;3.63;;;1.38;;
29384;SDS011;16367;48.736;9.218;2022-10-16T04:41:32;6.20;;;1.48;;
29384;SDS011;16367;48.736;9.218;2022-10-16T04:43:35;3.95;;;1.60;;
29384;SDS011;16367;48.736;9.218;2022-10-16T04:45:39;4.40;;;1.42;;
29384;SDS011;16367;48.736;9.218;2022-10-16T04:47:41;5.75;;;1.75;;
29384;SDS011;16367;48.736;9.218;2022-10-16T04:49:44;6.55;;;1.73;;
29384;SDS011;16367;48.736;9.218;2022-10-16T04:51:46;4.88;;;1.60;;
29384;SDS011;16367;48.736;9.218;2022-10-16T04:53:49;4.03;;;1.63;;
29384;SDS011;16367;48.736;9.218;2022-10-16T04:55:52;4.35;;;1.52;;
29384;SDS011;16367;48.736;9.218;2022-10-16T04:57:54;3.78;;;1.50;;
29384;SDS011;16367;48.736;9.218;2022-10-16T04:59:57;6.47;;;1.60;;
29384;SDS011;16367;48.736;9.218;2022-10-16T05:02:01;4.68;;;1.95;;
29384;SDS011;16367;48.736;9.218;2022-10-16T05:04:03;4.32;;;1.67;;
29384;SDS011;16367;48.736;9.218;2022-10-16T05:06:06;3.95;;;1.73;;
29384;SDS011;16367;48.736;9.218;2022-10-16T05:08:09;4.65;;;1.40;;
29384;SDS011;16367;48.736;9.218;2022-10-16T05:10:12;5.35;;;1.90;;
29384;SDS011;16367;48.736;9.218;2022-10-16T05:12:15;5.13;;;1.80;;
29384;SDS011;16367;48.736;9.218;2022-10-16T05:14:17;6.78;;;3.60;;
29384;SDS011;16367;48.736;9.218;2022-10-16T05:16:20;4.45;;;2.00;;
29384;SDS011;16367;48.736;9.218;2022-10-16T05:18:24;7.22;;;2.25;;
29384;SDS011;16367;48.736;9.218;2022-10-16T05:20:26;5.50;;;2.10;;
29384;SDS011;16367;48.736;9.218;2022-10-16T05:22:29;4.80;;;2.13;;
29384;SDS011;16367;48.736;9.218;2022-10-16T05:24:32;4.35;;;1.42;;
29384;SDS011;16367;48.736;9.218;2022-10-16T05:26:34;4.35;;;1.65;;
29384;SDS011;16367;48.736;9.218;2022-10-16T05:28:37;4.72;;;1.98;;
29384;SDS011;16367;48.736;9.218;2022-10-16T05:30:39;3.70;;;1.45;;
29384;SDS011;16367;48.736;9.218;2022-10-16T05:32:45;4.00;;;1.50;;
29384;SDS011;16367;48.736;9.218;2022-10-16T05:34:50;4.45;;;1.52;;
29384;SDS011;16367;48.736;9.218;2022-10-16T05:36:53;5.25;;;1.50;;
29384;SDS011;16367;48.736;9.218;2022-10-16T05:38:55;5.25;;;1.92;;
29384;SDS011;16367;48.736;9.218;2022-10-16T05:40:58;7.40;;;2.35;;
29384;SDS011;16367;48.736;9.218;2022-10-16T05:43:01;6.15;;;1.55;;
29384;SDS011;16367;48.736;9.218;2022-10-16T05:45:04;4.13;;;1.42;;
29384;SDS011;16367;48.736;9.218;2022-10-16T05:47:07;4.15;;;1.35;;
29384;SDS011;16367;48.736;9.218;2022-10-16T05:49:11;6.07;;;1.77;;
29384;SDS011;16367;48.736;9.218;2022-10-16T05:51:15;5.38;;;1.77;;
29384;SDS011;16367;48.736;9.218;2022-10-16T05:53:18;4.95;;;1.55;;
29384;SDS011;16367;48.736;9.218;2022-10-16T05:55:26;3.97;;;1.65;;
29384;SDS011;16367;48.736;9.218;2022-10-16T05:57:29;5.53;;;1.65;;
29384;SDS011;16367;48.736;9.218;2022-10-16T05:59:32;5.45;;;1.60;;
29384;SDS011;16367;48.736;9.218;2022-10-16T06:01:34;4.07;;;1.60;;
29384;SDS011;16367;48.736;9.218;2022-10-16T06:03:37;5.80;;;2.10;;
29384;SDS011;16367;48.736;9.218;2022-10-16T06:05:40;5.78;;;1.50;;
29384;SDS011;16367;48.736;9.218;2022-10-16T06:07:45;5.65;;;1.85;;
29384;SDS011;16367;48.736;9.218;2022-10-16T06:09:48;4.50;;;1.75;;
29384;SDS011;16367;48.736;9.218;2022-10-16T06:11:51;4.82;;;1.70;;
29384;SDS011;16367;48.736;9.218;2022-10-16T06:13:54;4.15;;;1.50;;
29384;SDS011;16367;48.736;9.218;2022-10-16T06:15:58;4.53;;;2.13;;
29384;SDS011;16367;48.736;9.218;2022-10-16T06:18:02;7.95;;;1.80;;
29384;SDS011;16367;48.736;9.218;2022-10-16T06:20:05;6.00;;;1.90;;
29384;SDS011;16367;48.736;9.218;2022-10-16T06:22:08;6.38;;;1.73;;
29384;SDS011;16367;48.736;9.218;2022-10-16T06:24:12;6.35;;;2.13;;
29384;SDS011;16367;48.736;9.218;2022-10-16T06:26:16;4.65;;;1.83;;
29384;SDS011;16367;48.736;9.218;2022-10-16T06:28:19;6.25;;;2.20;;
29384;SDS011;16367;48.736;9.218;2022-10-16T06:30:22;5.03;;;2.10;;
29384;SDS011;16367;48.736;9.218;2022-10-16T06:32:25;4.90;;;2.25;;
29384;SDS011;16367;48.736;9.218;2022-10-16T06:34:27;4.38;;;2.03;;
29384;SDS011;16367;48.736;9.218;2022-10-16T06:36:30;5.35;;;1.85;;
29384;SDS011;16367;48.736;9.218;2022-10-16T06:38:33;6.53;;;2.33;;
29384;SDS011;16367;48.736;9.218;2022-10-16T06:40:37;5.55;;;2.00;;
29384;SDS011;16367;48.736;9.218;2022-10-16T06:42:40;4.60;;;1.92;;
29384;SDS011;16367;48.736;9.218;2022-10-16T06:44:43;9.45;;;1.77;;
29384;SDS011;16367;48.736;9.218;2022-10-16T06:46:46;3.58;;;1.35;;
29384;SDS011;16367;48.736;9.218;2022-10-16T06:48:48;4.60;;;1.48;;
29384;SDS011;16367;48.736;9.218;2022-10-16T06:50:55;3.38;;;1.50;;
29384;SDS011;16367;48.736;9.218;2022-10-16T06:52:59;4.65;;;1.60;;
29384;SDS011;16367;48.736;9.218;2022-10-16T06:55:02;3.78;;;1.42;;
29384;SDS011;16367;48.736;9.218;2022-10-16T06:57:06;4.10;;;1.90;;
29384;SDS011;16367;48.736;9.218;2022-10-16T06:59:09;4.57;;;1.50;;
29384;SDS011;16367;48.736;9.218;2022-10-16T07:01:12;6.50;;;1.60;;
29384;SDS011;16367;48.736;9.218;2022-10-16T07:03:15;5.03;;;1.55;;
29384;SDS011;16367;48.736;9.218;2022-10-16T07:05:18;10.43;;;2.28;;
29384;SDS011;16367;48.736;9.218;2022-10-16T07:07:21;4.85;;;1.50;;
29384;SDS011;16367;48.736;9.218;2022-10-16T07:09:25;6.35;;;2.25;;
29384;SDS011;16367;48.736;9.218;2022-10-16T07:11:28;4.20;;;1.40;;
29384;SDS011;16367;48.736;9.218;2022-10-16T07:13:33;4.60;;;1.50;;
29384;SDS011;16367;48.736;9.218;2022-10-16T07:15:36;5.97;;;1.60;;
29384;SDS011;16367;48.736;9.218;2022-10-16T07:17:39;4.88;;;1.70;;
29384;SDS011;16367;48.736;9.218;2022-10-16T07:19:42;3.90;;;1.48;;
29384;SDS011;16367;48.736;9.218;2022-10-16T07:21:44;5.05;;;1.50;;
29384;SDS011;16367;48.736;9.218;2022-10-16T07:23:49;4.07;;;1.58;;
29384;SDS011;16367;48.736;9.218;2022-10-16T07:25:55;4.10;;;1.45;;
29384;SDS011;16367;48.736;9.218;2022-10-16T07:27:57;5.85;;;1.90;;
29384;SDS011;16367;48.736;9.218;2022-10-16T07:30:01;5.93;;;1.50;;
29384;SDS011;16367;48.736;9.218;2022-10-16T07:32:09;4.70;;;1.50;;
29384;SDS011;16367;48.736;9.218;2022-10-16T07:34:12;4.70;;;1.50;;
29384;SDS011;16367;48.736;9.218;2022-10-16T07:36:16;4.45;;;1.52;;
29384;SDS011;16367;48.736;9.218;2022-10-16T07:38:20;4.50;;;1.80;;
29384;SDS011;16367;48.736;9.218;2022-10-16T07:40:24;4.20;;;1.73;;
29384;SDS011;16367;48.736;9.218;2022-10-16T07:42:28;7.20;;;1.75;;
29384;SDS011;16367;48.736;9.218;2022-10-16T07:44:30;5.65;;;2.20;;
29384;SDS011;16367;48.736;9.218;2022-10-16T07:46:34;6.30;;;2.13;;
29384;SDS011;16367;48.736;9.218;2022-10-16T07:48:37;5.10;;;1.83;;
29384;SDS011;16367;48.736;9.218;2022-10-16T07:50:40;4.32;;;1.67;;
29384;SDS011;16367;48.736;9.218;2022-10-16T07:52:43;6.07;;;1.83;;
29384;SDS011;16367;48.736;9.218;2022-10-16T07:54:45;3.85;;;1.60;;
29384;SDS011;16367;48.736;9.218;2022-10-16T07:56:48;5.00;;;1.45;;
29384;SDS011;16367;48.736;9.218;2022-10-16T07:58:51;4.63;;;1.40;;
29384;SDS011;16367;48.736;9.218;2022-10-16T08:00:54;5.65;;;1.50;;
29384;SDS011;16367;48.736;9.218;2022-10-16T08:02:58;3.08;;;1.17;;
29384;SDS011;16367;48.736;9.218;2022-10-16T08:05:01;3.42;;;1.48;;
29384;SDS011;16367;48.736;9.218;2022-10-16T08:07:04;4.22;;;1.80;;
29384;SDS011;16367;48.736;9.218;2022-10-16T08:09:08;7.85;;;2.70;;
29384;SDS011;16367;48.736;9.218;2022-10-16T08:11:11;6.50;;;2.22;;
29384;SDS011;16367;48.736;9.218;2022-10-16T08:13:15;7.90;;;2.70;;
29384;SDS011;16367;48.736;9.218;2022-10-16T08:15:18;6.03;;;2.03;;
29384;SDS011;16367;48.736;9.218;2022-10-16T08:17:21;7.20;;;1.88;;
29384;SDS011;16367;48.736;9.218;2022-10-16T08:19:25;7.07;;;2.30;;
29384;SDS011;16367;48.736;9.218;2022-10-16T08:21:28;7.03;;;2.00;;
29384;SDS011;16367;48.736;9.218;2022-10-16T08:23:31;7.25;;;1.80;;
29384;SDS011;16367;48.736;9.218;2022-10-16T08:25:34;5.63;;;1.50;;
29384;SDS011;16367;48.736;9.218;2022-10-16T08:27:38;9.23;;;2.50;;
29384;SDS011;16367;48.736;9.218;2022-10-16T08:29:41;6.20;;;1.80;;
29384;SDS011;16367;48.736;9.218;2022-10-16T08:31:43;4.93;;;1.70;;
29384;SDS011;16367;48.736;9.218;2022-10-16T08:33:46;4.63;;;1.50;;
29384;SDS011;16367;48.736;9.218;2022-10-16T08:35:53;6.00;;;1.58;;
29384;SDS011;16367;48.736;9.218;2022-10-16T08:37:56;6.28;;;2.10;;
29384;SDS011;16367;48.736;9.218;2022-10-16T08:39:59;9.15;;;1.90;;
29384;SDS011;16367;48.736;9.218;2022-10-16T08:42:07;5.05;;;1.40;;
29384;SDS011;16367;48.736;9.218;2022-10-16T08:44:28;6.35;;;1.80;;
29384;SDS011;16367;48.736;9.218;2022-10-16T08:46:42;5.38;;;2.20;;
29384;SDS011;16367;48.736;9.218;2022-10-16T08:48:53;5.50;;;1.60;;
29384;SDS011;16367;48.736;9.218;2022-10-16T08:51:00;3.85;;;1.42;;
29384;SDS011;16367;48.736;9.218;2022-10-16T08:53:04;6.28;;;1.75;;
29384;SDS011;16367;48.736;9.218;2022-10-16T08:55:08;5.13;;;2.10;;
29384;SDS011;16367;48.736;9.218;2022-10-16T08:57:25;5.93;;;2.00;;
29384;SDS011;16367;48.736;9.218;2022-10-16T08:59:28;5.15;;;1.70;;
29384;SDS011;16367;48.736;9.218;2022-10-16T09:01:34;4.97;;;1.40;;
29384;SDS011;16367;48.736;9.218;2022-10-16T09:03:51;5.78;;;1.60;;
29384;SDS011;16367;48.736;9.218;2022-10-16T09:06:12;3.28;;;1.20;;
29384;SDS011;16367;48.736;9.218;2022-10-16T09:08:28;4.70;;;1.58;;
29384;SDS011;16367;48.736;9.218;2022-10-16T09:10:38;4.43;;;1.30;;
29384;SDS011;16367;48.736;9.218;2022-10-16T09:12:53;4.70;;;1.70;;
29384;SDS011;16367;48.736;9.218;2022-10-16T09:15:02;5.32;;;1.63;;
29384;SDS011;16367;48.736;9.218;2022-10-16T09:17:24;4.25;;;1.70;;
29384;SDS011;16367;48.736;9.218;2022-10-16T09:19:33;4.30;;;1.33;;
29384;SDS011;16367;48.736;9.218;2022-10-16T09:21:42;4.28;;;1.23;;
29384;SDS011;16367;48.736;9.218;2022-10-16T09:23:46;3.30;;;1.15;;
29384;SDS011;16367;48.736;9.218;2022-10-16T09:25:49;4.22;;;1.20;;
29384;SDS011;16367;48.736;9.218;2022-10-16T09:27:52;2.97;;;1.02;;
29384;SDS011;16367;48.736;9.218;2022-10-16T09:29:56;3.83;;;1.23;;
29384;SDS011;16367;48.736;9.218;2022-10-16T09:32:07;3.42;;;1.10;;
29384;SDS011;16367;48.736;9.218;2022-10-16T09:34:17;3.22;;;1.17;;
29384;SDS011;16367;48.736;9.218;2022-10-16T09:36:29;4.20;;;1.20;;
29384;SDS011;16367;48.736;9.218;2022-10-16T09:38:39;4.50;;;1.27;;
29384;SDS011;16367;48.736;9.218;2022-10-16T09:40:42;3.38;;;1.35;;
29384;SDS011;16367;48.736;9.218;2022-10-16T09:42:45;5.13;;;1.10;;
29384;SDS011;16367;48.736;9.218;2022-10-16T09:44:48;3.88;;;1.30;;
29384;SDS011;16367;48.736;9.218;2022-10-16T09:47:00;4.93;;;1.23;;
29384;SDS011;16367;48.736;9.218;2022-10-16T09:49:04;5.95;;;1.27;;
29384;SDS011;16367;48.736;9.218;2022-10-16T09:51:21;4.90;;;1.35;;
29384;SDS011;16367;48.736;9.218;2022-10-16T09:53:37;3.58;;;1.10;;
29384;SDS011;16367;48.736;9.218;2022-10-16T09:55:49;4.35;;;1.27;;
29384;SDS011;16367;48.736;9.218;2022-10-16T09:57:53;3.67;;;1.17;;
29384;SDS011;16367;48.736;9.218;2022-10-16T09:59:57;4.53;;;1.45;;
29384;SDS011;16367;48.736;9.218;2022-10-16T10:02:01;4.53;;;1.10;;
29384;SDS011;16367;48.736;9.218;2022-10-16T10:04:06;3.63;;;1.10;;
29384;SDS011;16367;48.736;9.218;2022-10-16T10:06:17;3.75;;;1.20;;
29384;SDS011;16367;48.736;9.218;2022-10-16T10:08:24;3.88;;;1.30;;
29384;SDS011;16367;48.736;9.218;2022-10-16T10:10:28;4.70;;;1.13;;
29384;SDS011;16367;48.736;9.218;2022-10-16T10:12:33;4.22;;;1.10;;
29384;SDS011;16367;48.736;9.218;2022-10-16T10:14:38;4.25;;;1.33;;
29384;SDS011;16367;48.736;9.218;2022-10-16T10:16:44;4.28;;;1.17;;
29384;SDS011;16367;48.736;9.218;2022-10-16T10:18:57;5.47;;;1.30;;
29384;SDS011;16367;48.736;9.218;2022-10-16T10:21:00;3.10;;;1.10;;
29384;SDS011;16367;48.736;9.218;2022-10-16T10:23:19;10.07;;;2.80;;
29384;SDS011;16367;48.736;9.218;2022-10-16T10:25:26;2.75;;;0.93;;
29384;SDS011;16367;48.736;9.218;2022-10-16T10:28:08;4.38;;;1.25;;
29384;SDS011;16367;48.736;9.218;2022-10-16T10:30:21;4.90;;;1.33;;
29384;SDS011;16367;48.736;9.218;2022-10-16T10:32:27;4.18;;;1.00;;
29384;SDS011;16367;48.736;9.218;2022-10-16T10:34:42;3.55;;;0.90;;
29384;SDS011;16367;48.736;9.218;2022-10-16T10:36:59;5.07;;;2.08;;
29384;SDS011;16367;48.736;9.218;2022-10-16T10:39:07;4.90;;;1.17;;
29384;SDS011;16367;48.736;9.218;2022-10-16T10:41:20;3.95;;;0.98;;
29384;SDS011;16367;48.736;9.218;2022-10-16T10:44:03;3.42;;;1.17;;
29384;SDS011;16367;48.736;9.218;2022-10-16T10:46:15;2.80;;;1.00;;
29384;SDS011;16367;48.736;9.218;2022-10-16T10:48:28;3.45;;;1.08;;
29384;SDS011;16367;48.736;9.218;2022-10-16T10:50:50;3.60;;;1.15;;
29384;SDS011;16367;48.736;9.218;2022-10-16T10:52:59;4.45;;;1.38;;
29384;SDS011;16367;48.736;9.218;2022-10-16T10:55:14;4.57;;;1.20;;
29384;SDS011;16367;48.736;9.218;2022-10-16T10:57:25;5.70;;;1.30;;
29384;SDS011;16367;48.736;9.218;2022-10-16T11:02:12;3.35;;;1.00;;
29384;SDS011;16367;48.736;9.218;2022-10-16T11:04:32;3.83;;;1.02;;
29384;SDS011;16367;48.736;9.218;2022-10-16T11:06:50;4.15;;;1.00;;
29384;SDS011;16367;48.736;9.218;2022-10-16T11:08:59;3.17;;;1.05;;
29384;SDS011;16367;48.736;9.218;2022-10-16T11:11:07;3.35;;;1.00;;
29384;SDS011;16367;48.736;9.218;2022-10-16T11:13:22;4.43;;;1.42;;
29384;SDS011;16367;48.736;9.218;2022-10-16T11:15:32;3.80;;;1.20;;
29384;SDS011;16367;48.736;9.218;2022-10-16T11:17:38;3.60;;;1.20;;
29384;SDS011;16367;48.736;9.218;2022-10-16T11:19:44;3.10;;;1.00;;
29384;SDS011;16367;48.736;9.218;2022-10-16T11:23:59;3.30;;;1.00;;
29384;SDS011;16367;48.736;9.218;2022-10-16T11:26:10;4.95;;;1.15;;
29384;SDS011;16367;48.736;9.218;2022-10-16T11:28:19;2.97;;;1.00;;
29384;SDS011;16367;48.736;9.218;2022-10-16T11:32:39;5.95;;;1.30;;
29384;SDS011;16367;48.736;9.218;2022-10-16T11:34:55;3.55;;;1.08;;
29384;SDS011;16367;48.736;9.218;2022-10-16T11:37:04;5.97;;;1.10;;
29384;SDS011;16367;48.736;9.218;2022-10-16T11:39:18;4.28;;;1.17;;
29384;SDS011;16367;48.736;9.218;2022-10-16T11:41:24;3.72;;;1.10;;
29384;SDS011;16367;48.736;9.218;2022-10-16T11:43:32;4.50;;;1.10;;
29384;SDS011;16367;48.736;9.218;2022-10-16T11:45:41;3.15;;;1.00;;
29384;SDS011;16367;48.736;9.218;2022-10-16T11:47:48;4.03;;;1.00;;
29384;SDS011;16367;48.736;9.218;2022-10-16T11:50:01;3.85;;;1.10;;
29384;SDS011;16367;48.736;9.218;2022-10-16T11:52:07;4.13;;;1.08;;
29384;SDS011;16367;48.736;9.218;2022-10-16T11:54:20;4.35;;;1.10;;
29384;SDS011;16367;48.736;9.218;2022-10-16T11:56:30;3.88;;;0.90;;
29384;SDS011;16367;48.736;9.218;2022-10-16T11:58:41;5.20;;;1.13;;
29384;SDS011;16367;48.736;9.218;2022-10-16T12:00:53;3.58;;;1.20;;
29384;SDS011;16367;48.736;9.218;2022-10-16T12:03:02;6.38;;;1.20;;
29384;SDS011;16367;48.736;9.218;2022-10-16T12:05:19;3.90;;;1.00;;
29384;SDS011;16367;48.736;9.218;2022-10-16T12:07:30;3.05;;;1.13;;
29384;SDS011;16367;48.736;9.218;2022-10-16T12:09:38;3.20;;;1.10;;
29384;SDS011;16367;48.736;9.218;2022-10-16T12:13:46;4.55;;;1.05;;
29384;SDS011;16367;48.736;9.218;2022-10-16T12:15:50;5.15;;;1.05;;
29384;SDS011;16367;48.736;9.218;2022-10-16T12:18:01;3.33;;;1.10;;
29384;SDS011;16367;48.736;9.218;2022-10-16T12:20:18;2.90;;;1.00;;
29384;SDS011;16367;48.736;9.218;2022-10-16T12:22:28;4.45;;;1.10;;
29384;SDS011;16367;48.736;9.218;2022-10-16T12:24:33;3.55;;;1.30;;
29384;SDS011;16367;48.736;9.218;2022-10-16T12:26:38;3.42;;;1.23;;
29384;SDS011;16367;48.736;9.218;2022-10-16T12:28:42;4.15;;;1.23;;
29384;SDS011;16367;48.736;9.218;2022-10-16T12:30:52;4.65;;;1.20;;
29384;SDS011;16367;48.736;9.218;2022-10-16T12:32:57;3.97;;;0.95;;
29384;SDS011;16367;48.736;9.218;2022-10-16T12:35:04;3.63;;;1.20;;
29384;SDS011;16367;48.736;9.218;2022-10-16T12:37:20;4.40;;;1.10;;
29384;SDS011;16367;48.736;9.218;2022-10-16T12:39:27;5.18;;;1.30;;
29384;SDS011;16367;48.736;9.218;2022-10-16T12:41:31;3.80;;;1.10;;
29384;SDS011;16367;48.736;9.218;2022-10-16T12:43:37;4.75;;;1.20;;
29384;SDS011;16367;48.736;9.218;2022-10-16T12:45:43;2.92;;;1.02;;
29384;SDS011;16367;48.736;9.218;2022-10-16T12:47:48;10.73;;;1.42;;
29384;SDS011;16367;48.736;9.218;2022-10-16T12:49:53;3.33;;;1.30;;